sensor_id;sensor_type;location;lat;lon;timestamp;temperature;humidity
11140;DHT22;5624;49.388;11.350;2023-12-29T00:01:18;6.90;99.90
11140;DHT22;5624;49.388;11.350;2023-12-29T00:03:43;7.00;99.90
11140;DHT22;5624;49.388;11.350;2023-12-29T00:06:09;7.00;99.90
11140;DHT22;5624;49.388;11.350;2023-12-29T00:08:36;7.00;99.90
11140;DHT22;5624;49.388;11.350;2023-12-29T00:11:02;7.00;99.90
11140;DHT22;5624;49.388;11.350;2023-12-29T00:13:27;7.00;99.90
11140;DHT22;5624;49.388;11.350;2023-12-29T00:15:54;7.10;99.90
11140;DHT22;5624;49.388;11.350;2023-12-29T00:18:20;7.00;99.90
11140;DHT22;5624;49.388;11.350;2023-12-29T00:20:45;7.00;99.90
11140;DHT22;5624;49.388;11.350;2023-12-29T00:23:11;7.10;99.90
11140;DHT22;5624;49.388;11.350;2023-12-29T00:25:37;7.00;99.90
11140;DHT22;5624;49.388;11.350;2023-12-29T00:28:03;7.10;99.90
11140;DHT22;5624;49.388;11.350;2023-12-29T00:30:29;7.10;99.90
11140;DHT22;5624;49.388;11.350;2023-12-29T00:32:57;7.10;99.90
11140;DHT22;5624;49.388;11.350;2023-12-29T00:35:23;7.10;99.90
11140;DHT22;5624;49.388;11.350;2023-12-29T00:37:50;7.10;99.90
11140;DHT22;5624;49.388;11.350;2023-12-29T00:40:16;7.00;99.90
11140;DHT22;5624;49.388;11.350;2023-12-29T00:42:42;7.00;99.90
11140;DHT22;5624;49.388;11.350;2023-12-29T00:45:07;7.00;99.90
11140;DHT22;5624;49.388;11.350;2023-12-29T00:47:33;7.10;99.90
11140;DHT22;5624;49.388;11.350;2023-12-29T00:50:00;7.10;99.90
11140;DHT22;5624;49.388;11.350;2023-12-29T00:52:25;7.00;99.90
11140;DHT22;5624;49.388;11.350;2023-12-29T00:54:51;7.10;99.90
11140;DHT22;5624;49.388;11.350;2023-12-29T00:57:16;7.10;99.90
11140;DHT22;5624;49.388;11.350;2023-12-29T00:59:42;7.10;99.90
11140;DHT22;5624;49.388;11.350;2023-12-29T01:02:09;7.10;99.90
11140;DHT22;5624;49.388;11.350;2023-12-29T01:04:37;7.10;99.90
11140;DHT22;5624;49.388;11.350;2023-12-29T01:07:03;7.10;99.90
11140;DHT22;5624;49.388;11.350;2023-12-29T01:09:29;7.10;99.90
11140;DHT22;5624;49.388;11.350;2023-12-29T01:11:54;7.10;99.90
11140;DHT22;5624;49.388;11.350;2023-12-29T01:14:20;7.20;99.90
11140;DHT22;5624;49.388;11.350;2023-12-29T01:16:45;7.10;99.90
11140;DHT22;5624;49.388;11.350;2023-12-29T01:19:11;7.10;99.90
11140;DHT22;5624;49.388;11.350;2023-12-29T01:21:39;7.10;99.90
11140;DHT22;5624;49.388;11.350;2023-12-29T01:24:05;7.10;99.90
11140;DHT22;5624;49.388;11.350;2023-12-29T01:26:41;7.10;99.90
11140;DHT22;5624;49.388;11.350;2023-12-29T01:29:07;7.10;99.90
11140;DHT22;5624;49.388;11.350;2023-12-29T01:31:32;7.10;99.90
11140;DHT22;5624;49.388;11.350;2023-12-29T01:33:58;7.10;99.90
11140;DHT22;5624;49.388;11.350;2023-12-29T01:36:24;7.10;99.80
11140;DHT22;5624;49.388;11.350;2023-12-29T01:38:49;7.20;99.40
11140;DHT22;5624;49.388;11.350;2023-12-29T01:41:15;7.20;99.10
11140;DHT22;5624;49.388;11.350;2023-12-29T01:46:25;7.10;98.40
11140;DHT22;5624;49.388;11.350;2023-12-29T01:48:52;7.10;98.50
11140;DHT22;5624;49.388;11.350;2023-12-29T01:51:21;7.10;98.50
11140;DHT22;5624;49.388;11.350;2023-12-29T01:53:49;7.00;98.60
11140;DHT22;5624;49.388;11.350;2023-12-29T01:56:15;6.90;98.90
11140;DHT22;5624;49.388;11.350;2023-12-29T01:58:41;6.80;99.10
11140;DHT22;5624;49.388;11.350;2023-12-29T02:01:07;6.60;99.90
11140;DHT22;5624;49.388;11.350;2023-12-29T02:03:34;6.50;99.90
11140;DHT22;5624;49.388;11.350;2023-12-29T02:06:00;6.40;99.90
11140;DHT22;5624;49.388;11.350;2023-12-29T02:08:25;6.40;99.90
11140;DHT22;5624;49.388;11.350;2023-12-29T02:10:51;6.40;99.90
11140;DHT22;5624;49.388;11.350;2023-12-29T02:13:17;6.40;99.90
11140;DHT22;5624;49.388;11.350;2023-12-29T02:15:42;6.40;99.90
11140;DHT22;5624;49.388;11.350;2023-12-29T02:18:13;6.40;99.90
11140;DHT22;5624;49.388;11.350;2023-12-29T02:20:41;6.40;99.90
11140;DHT22;5624;49.388;11.350;2023-12-29T02:23:06;6.40;99.90
11140;DHT22;5624;49.388;11.350;2023-12-29T02:25:32;6.30;99.90
11140;DHT22;5624;49.388;11.350;2023-12-29T02:28:15;6.30;99.90
11140;DHT22;5624;49.388;11.350;2023-12-29T02:30:48;6.10;99.90
11140;DHT22;5624;49.388;11.350;2023-12-29T02:33:18;6.10;99.90
11140;DHT22;5624;49.388;11.350;2023-12-29T02:35:45;6.10;99.90
11140;DHT22;5624;49.388;11.350;2023-12-29T02:38:11;6.10;99.90
11140;DHT22;5624;49.388;11.350;2023-12-29T02:40:37;6.10;99.90
11140;DHT22;5624;49.388;11.350;2023-12-29T02:43:03;6.10;99.90
11140;DHT22;5624;49.388;11.350;2023-12-29T02:45:29;6.10;99.90
11140;DHT22;5624;49.388;11.350;2023-12-29T02:47:54;6.10;99.90
11140;DHT22;5624;49.388;11.350;2023-12-29T02:50:20;6.10;99.90
11140;DHT22;5624;49.388;11.350;2023-12-29T02:52:46;6.10;99.90
11140;DHT22;5624;49.388;11.350;2023-12-29T02:55:11;6.10;99.90
11140;DHT22;5624;49.388;11.350;2023-12-29T02:57:38;6.20;99.90
11140;DHT22;5624;49.388;11.350;2023-12-29T03:00:05;6.10;99.90
11140;DHT22;5624;49.388;11.350;2023-12-29T03:02:31;6.10;99.90
11140;DHT22;5624;49.388;11.350;2023-12-29T03:04:56;6.10;99.90
11140;DHT22;5624;49.388;11.350;2023-12-29T03:07:22;6.10;99.90
11140;DHT22;5624;49.388;11.350;2023-12-29T03:09:47;6.10;99.90
11140;DHT22;5624;49.388;11.350;2023-12-29T03:12:13;6.00;99.90
11140;DHT22;5624;49.388;11.350;2023-12-29T03:14:38;6.00;99.90
11140;DHT22;5624;49.388;11.350;2023-12-29T03:17:04;5.90;99.90
11140;DHT22;5624;49.388;11.350;2023-12-29T03:19:29;5.80;99.90
11140;DHT22;5624;49.388;11.350;2023-12-29T03:21:55;5.70;99.90
11140;DHT22;5624;49.388;11.350;2023-12-29T03:24:21;5.70;99.90
11140;DHT22;5624;49.388;11.350;2023-12-29T03:26:46;5.80;99.90
11140;DHT22;5624;49.388;11.350;2023-12-29T03:29:12;5.70;99.90
11140;DHT22;5624;49.388;11.350;2023-12-29T03:31:37;5.70;99.90
11140;DHT22;5624;49.388;11.350;2023-12-29T03:34:03;5.50;99.90
11140;DHT22;5624;49.388;11.350;2023-12-29T03:36:29;5.50;99.90
11140;DHT22;5624;49.388;11.350;2023-12-29T03:38:54;5.40;99.90
11140;DHT22;5624;49.388;11.350;2023-12-29T03:41:20;5.30;99.90
11140;DHT22;5624;49.388;11.350;2023-12-29T03:43:45;5.20;99.90
11140;DHT22;5624;49.388;11.350;2023-12-29T03:46:18;5.10;99.90
11140;DHT22;5624;49.388;11.350;2023-12-29T03:48:44;5.10;99.90
11140;DHT22;5624;49.388;11.350;2023-12-29T03:51:09;5.00;99.90
11140;DHT22;5624;49.388;11.350;2023-12-29T03:53:35;5.00;99.90
11140;DHT22;5624;49.388;11.350;2023-12-29T03:56:05;4.90;99.90
11140;DHT22;5624;49.388;11.350;2023-12-29T03:58:30;5.00;99.90
11140;DHT22;5624;49.388;11.350;2023-12-29T04:00:56;4.90;99.90
11140;DHT22;5624;49.388;11.350;2023-12-29T04:03:21;5.00;99.90
11140;DHT22;5624;49.388;11.350;2023-12-29T04:05:47;5.10;99.90
11140;DHT22;5624;49.388;11.350;2023-12-29T04:08:13;5.00;99.90
11140;DHT22;5624;49.388;11.350;2023-12-29T04:10:38;5.10;99.90
11140;DHT22;5624;49.388;11.350;2023-12-29T04:13:04;5.00;99.90
11140;DHT22;5624;49.388;11.350;2023-12-29T04:15:30;5.00;99.90
11140;DHT22;5624;49.388;11.350;2023-12-29T04:17:55;5.00;99.90
11140;DHT22;5624;49.388;11.350;2023-12-29T04:20:21;5.00;99.90
11140;DHT22;5624;49.388;11.350;2023-12-29T04:22:47;5.00;99.90
11140;DHT22;5624;49.388;11.350;2023-12-29T04:25:12;5.10;99.90
11140;DHT22;5624;49.388;11.350;2023-12-29T04:27:39;5.10;99.90
11140;DHT22;5624;49.388;11.350;2023-12-29T04:30:04;5.20;99.90
11140;DHT22;5624;49.388;11.350;2023-12-29T04:32:30;5.20;99.90
11140;DHT22;5624;49.388;11.350;2023-12-29T04:34:56;5.30;99.90
11140;DHT22;5624;49.388;11.350;2023-12-29T04:37:21;5.30;99.90
11140;DHT22;5624;49.388;11.350;2023-12-29T04:39:47;5.40;99.90
11140;DHT22;5624;49.388;11.350;2023-12-29T04:42:12;5.30;99.90
11140;DHT22;5624;49.388;11.350;2023-12-29T04:44:38;5.40;99.90
11140;DHT22;5624;49.388;11.350;2023-12-29T04:47:03;5.40;99.90
11140;DHT22;5624;49.388;11.350;2023-12-29T04:49:29;5.40;99.90
11140;DHT22;5624;49.388;11.350;2023-12-29T04:51:54;5.50;99.90
11140;DHT22;5624;49.388;11.350;2023-12-29T04:54:20;5.50;99.90
11140;DHT22;5624;49.388;11.350;2023-12-29T04:56:45;5.50;99.90
11140;DHT22;5624;49.388;11.350;2023-12-29T04:59:11;5.50;99.90
11140;DHT22;5624;49.388;11.350;2023-12-29T05:01:36;5.50;99.90
11140;DHT22;5624;49.388;11.350;2023-12-29T05:04:02;5.50;99.90
11140;DHT22;5624;49.388;11.350;2023-12-29T05:06:28;5.50;99.90
11140;DHT22;5624;49.388;11.350;2023-12-29T05:08:53;5.40;99.90
11140;DHT22;5624;49.388;11.350;2023-12-29T05:11:19;5.50;99.90
11140;DHT22;5624;49.388;11.350;2023-12-29T05:13:44;5.60;99.90
11140;DHT22;5624;49.388;11.350;2023-12-29T05:16:10;5.60;99.90
11140;DHT22;5624;49.388;11.350;2023-12-29T05:18:35;5.60;99.90
11140;DHT22;5624;49.388;11.350;2023-12-29T05:21:01;5.60;99.90
11140;DHT22;5624;49.388;11.350;2023-12-29T05:23:26;5.60;99.90
11140;DHT22;5624;49.388;11.350;2023-12-29T05:25:52;5.60;99.90
11140;DHT22;5624;49.388;11.350;2023-12-29T05:28:17;5.60;99.90
11140;DHT22;5624;49.388;11.350;2023-12-29T05:30:43;5.60;99.90
11140;DHT22;5624;49.388;11.350;2023-12-29T05:33:08;5.60;99.90
11140;DHT22;5624;49.388;11.350;2023-12-29T05:35:34;5.60;99.90
11140;DHT22;5624;49.388;11.350;2023-12-29T05:38:00;5.60;99.90
11140;DHT22;5624;49.388;11.350;2023-12-29T05:40:25;5.60;99.90
11140;DHT22;5624;49.388;11.350;2023-12-29T05:42:51;5.60;99.90
11140;DHT22;5624;49.388;11.350;2023-12-29T05:45:16;5.60;99.90
11140;DHT22;5624;49.388;11.350;2023-12-29T05:47:43;5.60;99.90
11140;DHT22;5624;49.388;11.350;2023-12-29T05:50:08;5.60;99.90
11140;DHT22;5624;49.388;11.350;2023-12-29T05:52:34;5.60;99.90
11140;DHT22;5624;49.388;11.350;2023-12-29T05:54:59;5.50;99.90
11140;DHT22;5624;49.388;11.350;2023-12-29T05:57:25;5.50;99.90
11140;DHT22;5624;49.388;11.350;2023-12-29T05:59:51;5.60;99.90
11140;DHT22;5624;49.388;11.350;2023-12-29T06:02:16;5.60;99.90
11140;DHT22;5624;49.388;11.350;2023-12-29T06:04:41;5.60;99.90
11140;DHT22;5624;49.388;11.350;2023-12-29T06:07:07;5.70;99.90
11140;DHT22;5624;49.388;11.350;2023-12-29T06:09:32;5.70;99.90
11140;DHT22;5624;49.388;11.350;2023-12-29T06:11:58;5.70;99.90
11140;DHT22;5624;49.388;11.350;2023-12-29T06:14:23;5.80;99.90
11140;DHT22;5624;49.388;11.350;2023-12-29T06:16:49;5.70;99.90
11140;DHT22;5624;49.388;11.350;2023-12-29T06:19:15;5.70;99.90
11140;DHT22;5624;49.388;11.350;2023-12-29T06:21:41;5.60;99.90
11140;DHT22;5624;49.388;11.350;2023-12-29T06:24:08;5.50;99.90
11140;DHT22;5624;49.388;11.350;2023-12-29T06:26:33;5.60;99.90
11140;DHT22;5624;49.388;11.350;2023-12-29T06:28:59;5.50;99.90
11140;DHT22;5624;49.388;11.350;2023-12-29T06:31:24;5.60;99.90
11140;DHT22;5624;49.388;11.350;2023-12-29T06:33:50;5.60;99.90
11140;DHT22;5624;49.388;11.350;2023-12-29T06:36:16;5.60;99.90
11140;DHT22;5624;49.388;11.350;2023-12-29T06:38:42;5.60;99.90
11140;DHT22;5624;49.388;11.350;2023-12-29T06:41:11;5.60;99.90
11140;DHT22;5624;49.388;11.350;2023-12-29T06:43:37;5.50;99.90
11140;DHT22;5624;49.388;11.350;2023-12-29T06:46:03;5.50;99.90
11140;DHT22;5624;49.388;11.350;2023-12-29T06:48:29;5.60;99.90
11140;DHT22;5624;49.388;11.350;2023-12-29T06:50:55;5.60;99.90
11140;DHT22;5624;49.388;11.350;2023-12-29T06:53:20;5.70;99.90
11140;DHT22;5624;49.388;11.350;2023-12-29T06:55:46;5.70;99.90
11140;DHT22;5624;49.388;11.350;2023-12-29T06:58:11;5.80;99.90
11140;DHT22;5624;49.388;11.350;2023-12-29T07:00:37;5.90;99.90
11140;DHT22;5624;49.388;11.350;2023-12-29T07:03:02;5.90;99.90
11140;DHT22;5624;49.388;11.350;2023-12-29T07:05:28;5.90;99.90
11140;DHT22;5624;49.388;11.350;2023-12-29T07:07:54;6.00;99.90
11140;DHT22;5624;49.388;11.350;2023-12-29T07:10:19;6.10;99.90
11140;DHT22;5624;49.388;11.350;2023-12-29T07:12:45;6.20;99.90
11140;DHT22;5624;49.388;11.350;2023-12-29T07:15:10;6.20;99.90
11140;DHT22;5624;49.388;11.350;2023-12-29T07:17:39;6.30;99.90
11140;DHT22;5624;49.388;11.350;2023-12-29T07:20:05;6.40;99.90
11140;DHT22;5624;49.388;11.350;2023-12-29T07:22:32;6.40;99.90
11140;DHT22;5624;49.388;11.350;2023-12-29T07:24:58;6.50;99.90
11140;DHT22;5624;49.388;11.350;2023-12-29T07:27:24;6.60;99.90
11140;DHT22;5624;49.388;11.350;2023-12-29T07:29:49;6.60;99.90
11140;DHT22;5624;49.388;11.350;2023-12-29T07:32:15;6.60;99.90
11140;DHT22;5624;49.388;11.350;2023-12-29T07:34:40;6.70;99.90
11140;DHT22;5624;49.388;11.350;2023-12-29T07:37:06;6.70;99.90
11140;DHT22;5624;49.388;11.350;2023-12-29T07:39:31;6.80;99.90
11140;DHT22;5624;49.388;11.350;2023-12-29T07:41:57;6.90;99.90
11140;DHT22;5624;49.388;11.350;2023-12-29T07:44:22;6.90;99.90
11140;DHT22;5624;49.388;11.350;2023-12-29T07:46:48;6.90;99.90
11140;DHT22;5624;49.388;11.350;2023-12-29T07:49:14;6.90;99.90
11140;DHT22;5624;49.388;11.350;2023-12-29T07:51:41;6.90;99.90
11140;DHT22;5624;49.388;11.350;2023-12-29T07:54:07;7.00;99.90
11140;DHT22;5624;49.388;11.350;2023-12-29T07:56:33;7.00;99.90
11140;DHT22;5624;49.388;11.350;2023-12-29T07:58:58;7.00;99.90
11140;DHT22;5624;49.388;11.350;2023-12-29T08:01:24;7.10;99.90
11140;DHT22;5624;49.388;11.350;2023-12-29T08:03:49;7.10;99.90
11140;DHT22;5624;49.388;11.350;2023-12-29T08:06:15;7.00;99.90
11140;DHT22;5624;49.388;11.350;2023-12-29T08:08:41;7.10;99.90
11140;DHT22;5624;49.388;11.350;2023-12-29T08:11:13;7.10;99.90
11140;DHT22;5624;49.388;11.350;2023-12-29T08:13:39;7.20;99.90
11140;DHT22;5624;49.388;11.350;2023-12-29T08:16:05;7.20;99.90
11140;DHT22;5624;49.388;11.350;2023-12-29T08:18:32;7.20;99.90
11140;DHT22;5624;49.388;11.350;2023-12-29T08:20:57;7.30;99.90
11140;DHT22;5624;49.388;11.350;2023-12-29T08:23:25;7.40;99.90
11140;DHT22;5624;49.388;11.350;2023-12-29T08:25:52;7.40;99.90
11140;DHT22;5624;49.388;11.350;2023-12-29T08:28:17;7.50;99.70
11140;DHT22;5624;49.388;11.350;2023-12-29T08:30:43;7.60;99.00
11140;DHT22;5624;49.388;11.350;2023-12-29T08:33:11;7.60;98.80
11140;DHT22;5624;49.388;11.350;2023-12-29T08:35:39;7.70;98.50
11140;DHT22;5624;49.388;11.350;2023-12-29T08:38:04;7.70;98.10
11140;DHT22;5624;49.388;11.350;2023-12-29T08:40:30;7.70;98.40
11140;DHT22;5624;49.388;11.350;2023-12-29T08:42:55;7.80;97.80
11140;DHT22;5624;49.388;11.350;2023-12-29T08:45:21;7.80;97.80
11140;DHT22;5624;49.388;11.350;2023-12-29T08:47:46;7.90;97.50
11140;DHT22;5624;49.388;11.350;2023-12-29T08:50:12;7.90;97.20
11140;DHT22;5624;49.388;11.350;2023-12-29T08:52:38;7.90;97.30
11140;DHT22;5624;49.388;11.350;2023-12-29T08:55:03;7.90;97.30
11140;DHT22;5624;49.388;11.350;2023-12-29T08:57:31;7.90;97.00
11140;DHT22;5624;49.388;11.350;2023-12-29T08:59:57;7.80;97.40
11140;DHT22;5624;49.388;11.350;2023-12-29T09:02:22;7.80;97.70
11140;DHT22;5624;49.388;11.350;2023-12-29T09:04:48;7.80;98.10
11140;DHT22;5624;49.388;11.350;2023-12-29T09:07:13;7.90;97.60
11140;DHT22;5624;49.388;11.350;2023-12-29T09:09:39;8.10;97.70
11140;DHT22;5624;49.388;11.350;2023-12-29T09:12:05;8.20;96.60
11140;DHT22;5624;49.388;11.350;2023-12-29T09:14:30;8.30;96.20
11140;DHT22;5624;49.388;11.350;2023-12-29T09:16:58;8.30;95.70
11140;DHT22;5624;49.388;11.350;2023-12-29T09:19:23;8.40;95.30
11140;DHT22;5624;49.388;11.350;2023-12-29T09:21:49;8.30;95.30
11140;DHT22;5624;49.388;11.350;2023-12-29T09:24:14;8.40;95.40
11140;DHT22;5624;49.388;11.350;2023-12-29T09:26:40;8.50;95.70
11140;DHT22;5624;49.388;11.350;2023-12-29T09:29:05;8.60;95.10
11140;DHT22;5624;49.388;11.350;2023-12-29T09:31:31;8.60;94.60
11140;DHT22;5624;49.388;11.350;2023-12-29T09:33:57;8.80;94.30
11140;DHT22;5624;49.388;11.350;2023-12-29T09:36:22;8.90;93.80
11140;DHT22;5624;49.388;11.350;2023-12-29T09:38:48;8.80;92.80
11140;DHT22;5624;49.388;11.350;2023-12-29T09:41:15;8.70;93.10
11140;DHT22;5624;49.388;11.350;2023-12-29T09:43:41;8.70;93.50
11140;DHT22;5624;49.388;11.350;2023-12-29T09:46:08;8.80;93.30
11140;DHT22;5624;49.388;11.350;2023-12-29T09:48:36;8.90;92.40
11140;DHT22;5624;49.388;11.350;2023-12-29T09:51:04;8.80;92.20
11140;DHT22;5624;49.388;11.350;2023-12-29T09:53:31;8.60;92.80
11140;DHT22;5624;49.388;11.350;2023-12-29T09:55:58;8.50;93.40
11140;DHT22;5624;49.388;11.350;2023-12-29T09:58:25;8.40;94.00
11140;DHT22;5624;49.388;11.350;2023-12-29T10:00:51;8.30;94.60
11140;DHT22;5624;49.388;11.350;2023-12-29T10:03:17;8.30;95.30
11140;DHT22;5624;49.388;11.350;2023-12-29T10:05:44;8.20;96.00
11140;DHT22;5624;49.388;11.350;2023-12-29T10:08:14;8.10;96.50
11140;DHT22;5624;49.388;11.350;2023-12-29T10:10:42;8.10;96.80
11140;DHT22;5624;49.388;11.350;2023-12-29T10:13:09;8.10;97.10
11140;DHT22;5624;49.388;11.350;2023-12-29T10:15:42;8.10;97.70
11140;DHT22;5624;49.388;11.350;2023-12-29T10:18:22;8.10;97.90
11140;DHT22;5624;49.388;11.350;2023-12-29T10:24:05;8.00;99.40
11140;DHT22;5624;49.388;11.350;2023-12-29T10:26:35;8.00;99.80
11140;DHT22;5624;49.388;11.350;2023-12-29T10:29:02;8.00;99.90
11140;DHT22;5624;49.388;11.350;2023-12-29T10:31:27;8.10;99.90
11140;DHT22;5624;49.388;11.350;2023-12-29T10:34:22;8.10;99.90
11140;DHT22;5624;49.388;11.350;2023-12-29T10:37:03;8.10;99.90
11140;DHT22;5624;49.388;11.350;2023-12-29T10:39:35;8.10;99.90
11140;DHT22;5624;49.388;11.350;2023-12-29T10:42:08;8.00;99.90
11140;DHT22;5624;49.388;11.350;2023-12-29T10:44:34;7.90;99.90
11140;DHT22;5624;49.388;11.350;2023-12-29T10:47:10;7.90;99.90
11140;DHT22;5624;49.388;11.350;2023-12-29T10:49:37;7.90;99.90
11140;DHT22;5624;49.388;11.350;2023-12-29T10:52:15;7.90;99.90
11140;DHT22;5624;49.388;11.350;2023-12-29T10:54:44;7.80;99.90
11140;DHT22;5624;49.388;11.350;2023-12-29T10:57:11;7.90;99.90
11140;DHT22;5624;49.388;11.350;2023-12-29T10:59:40;7.90;99.90
11140;DHT22;5624;49.388;11.350;2023-12-29T11:02:06;8.00;99.90
11140;DHT22;5624;49.388;11.350;2023-12-29T11:04:33;7.90;99.90
11140;DHT22;5624;49.388;11.350;2023-12-29T11:06:59;7.90;99.90
11140;DHT22;5624;49.388;11.350;2023-12-29T11:09:32;7.90;99.90
11140;DHT22;5624;49.388;11.350;2023-12-29T11:12:01;7.90;99.90
11140;DHT22;5624;49.388;11.350;2023-12-29T11:14:27;8.00;99.90
11140;DHT22;5624;49.388;11.350;2023-12-29T11:16:57;8.10;99.90
11140;DHT22;5624;49.388;11.350;2023-12-29T11:19:23;8.20;99.90
11140;DHT22;5624;49.388;11.350;2023-12-29T11:21:51;8.30;99.90
11140;DHT22;5624;49.388;11.350;2023-12-29T11:24:21;8.50;99.90
11140;DHT22;5624;49.388;11.350;2023-12-29T11:26:48;8.60;99.90
11140;DHT22;5624;49.388;11.350;2023-12-29T11:29:15;8.60;99.90
11140;DHT22;5624;49.388;11.350;2023-12-29T11:31:41;8.60;99.90
11140;DHT22;5624;49.388;11.350;2023-12-29T11:34:23;8.60;99.90
11140;DHT22;5624;49.388;11.350;2023-12-29T11:36:56;8.50;99.90
11140;DHT22;5624;49.388;11.350;2023-12-29T11:39:30;8.50;99.90
11140;DHT22;5624;49.388;11.350;2023-12-29T11:42:05;8.40;99.90
11140;DHT22;5624;49.388;11.350;2023-12-29T11:44:32;8.40;99.90
11140;DHT22;5624;49.388;11.350;2023-12-29T11:46:58;8.40;99.90
11140;DHT22;5624;49.388;11.350;2023-12-29T11:49:25;8.60;99.90
11140;DHT22;5624;49.388;11.350;2023-12-29T11:51:51;8.70;99.90
11140;DHT22;5624;49.388;11.350;2023-12-29T11:54:24;8.70;99.90
11140;DHT22;5624;49.388;11.350;2023-12-29T11:56:50;8.70;99.90
11140;DHT22;5624;49.388;11.350;2023-12-29T11:59:25;8.70;99.90
11140;DHT22;5624;49.388;11.350;2023-12-29T12:01:58;8.80;99.90
11140;DHT22;5624;49.388;11.350;2023-12-29T12:07:12;8.90;99.90
11140;DHT22;5624;49.388;11.350;2023-12-29T12:09:38;9.10;99.90
11140;DHT22;5624;49.388;11.350;2023-12-29T12:12:05;9.00;98.80
11140;DHT22;5624;49.388;11.350;2023-12-29T12:14:49;8.90;99.80
11140;DHT22;5624;49.388;11.350;2023-12-29T12:19:57;8.80;99.90
11140;DHT22;5624;49.388;11.350;2023-12-29T12:22:24;8.80;99.90
11140;DHT22;5624;49.388;11.350;2023-12-29T12:24:55;8.90;99.90
11140;DHT22;5624;49.388;11.350;2023-12-29T12:27:22;8.90;99.90
11140;DHT22;5624;49.388;11.350;2023-12-29T12:29:53;8.90;99.70
11140;DHT22;5624;49.388;11.350;2023-12-29T12:32:20;8.80;99.70
11140;DHT22;5624;49.388;11.350;2023-12-29T12:34:46;8.70;99.80
11140;DHT22;5624;49.388;11.350;2023-12-29T12:37:12;8.60;99.90
11140;DHT22;5624;49.388;11.350;2023-12-29T12:39:39;8.60;99.90
11140;DHT22;5624;49.388;11.350;2023-12-29T12:42:05;8.50;99.90
11140;DHT22;5624;49.388;11.350;2023-12-29T12:44:31;8.50;99.90
11140;DHT22;5624;49.388;11.350;2023-12-29T12:46:59;8.50;99.90
11140;DHT22;5624;49.388;11.350;2023-12-29T12:49:29;8.40;99.90
11140;DHT22;5624;49.388;11.350;2023-12-29T12:51:55;8.50;99.90
11140;DHT22;5624;49.388;11.350;2023-12-29T12:54:21;8.50;99.90
11140;DHT22;5624;49.388;11.350;2023-12-29T12:56:47;8.60;99.90
11140;DHT22;5624;49.388;11.350;2023-12-29T12:59:14;8.70;99.90
11140;DHT22;5624;49.388;11.350;2023-12-29T13:01:41;8.80;99.90
11140;DHT22;5624;49.388;11.350;2023-12-29T13:04:08;9.00;99.40
11140;DHT22;5624;49.388;11.350;2023-12-29T13:06:39;9.00;98.60
11140;DHT22;5624;49.388;11.350;2023-12-29T13:09:07;9.10;98.60
11140;DHT22;5624;49.388;11.350;2023-12-29T13:11:37;9.30;98.60
11140;DHT22;5624;49.388;11.350;2023-12-29T13:14:02;9.40;97.80
11140;DHT22;5624;49.388;11.350;2023-12-29T13:16:35;9.50;96.60
11140;DHT22;5624;49.388;11.350;2023-12-29T13:19:21;9.60;95.80
11140;DHT22;5624;49.388;11.350;2023-12-29T13:21:50;9.70;94.80
11140;DHT22;5624;49.388;11.350;2023-12-29T13:24:16;9.90;94.70
11140;DHT22;5624;49.388;11.350;2023-12-29T13:26:44;9.80;93.30
11140;DHT22;5624;49.388;11.350;2023-12-29T13:29:11;9.90;93.30
11140;DHT22;5624;49.388;11.350;2023-12-29T13:31:37;10.00;91.80
11140;DHT22;5624;49.388;11.350;2023-12-29T13:34:06;10.10;90.70
11140;DHT22;5624;49.388;11.350;2023-12-29T13:36:52;10.00;90.80
11140;DHT22;5624;49.388;11.350;2023-12-29T13:39:52;9.90;90.40
11140;DHT22;5624;49.388;11.350;2023-12-29T13:42:19;9.80;90.50
11140;DHT22;5624;49.388;11.350;2023-12-29T13:44:49;9.70;90.90
11140;DHT22;5624;49.388;11.350;2023-12-29T13:47:15;9.60;91.00
11140;DHT22;5624;49.388;11.350;2023-12-29T13:49:42;9.50;90.90
11140;DHT22;5624;49.388;11.350;2023-12-29T13:52:08;9.50;90.40
11140;DHT22;5624;49.388;11.350;2023-12-29T13:54:41;9.40;91.00
11140;DHT22;5624;49.388;11.350;2023-12-29T13:57:08;9.40;90.70
11140;DHT22;5624;49.388;11.350;2023-12-29T13:59:34;9.40;90.30
11140;DHT22;5624;49.388;11.350;2023-12-29T14:02:03;9.30;90.10
11140;DHT22;5624;49.388;11.350;2023-12-29T14:04:40;9.20;89.40
11140;DHT22;5624;49.388;11.350;2023-12-29T14:07:07;9.20;89.80
11140;DHT22;5624;49.388;11.350;2023-12-29T14:09:34;9.20;89.20
11140;DHT22;5624;49.388;11.350;2023-12-29T14:11:59;9.20;88.90
11140;DHT22;5624;49.388;11.350;2023-12-29T14:14:25;9.10;88.80
11140;DHT22;5624;49.388;11.350;2023-12-29T14:16:52;9.10;88.50
11140;DHT22;5624;49.388;11.350;2023-12-29T14:19:18;9.10;88.30
11140;DHT22;5624;49.388;11.350;2023-12-29T14:21:49;9.10;88.10
11140;DHT22;5624;49.388;11.350;2023-12-29T14:24:16;9.10;87.60
11140;DHT22;5624;49.388;11.350;2023-12-29T14:27:10;9.00;87.00
11140;DHT22;5624;49.388;11.350;2023-12-29T14:29:40;9.00;87.40
11140;DHT22;5624;49.388;11.350;2023-12-29T14:32:09;9.00;87.40
11140;DHT22;5624;49.388;11.350;2023-12-29T14:34:35;8.90;87.10
11140;DHT22;5624;49.388;11.350;2023-12-29T14:37:01;8.90;87.40
11140;DHT22;5624;49.388;11.350;2023-12-29T14:39:26;8.90;87.70
11140;DHT22;5624;49.388;11.350;2023-12-29T14:41:52;8.80;87.90
11140;DHT22;5624;49.388;11.350;2023-12-29T14:44:18;8.80;87.90
11140;DHT22;5624;49.388;11.350;2023-12-29T14:46:44;8.80;88.40
11140;DHT22;5624;49.388;11.350;2023-12-29T14:49:09;8.80;88.00
11140;DHT22;5624;49.388;11.350;2023-12-29T14:51:35;8.90;88.00
11140;DHT22;5624;49.388;11.350;2023-12-29T14:54:00;8.80;88.10
11140;DHT22;5624;49.388;11.350;2023-12-29T14:56:28;8.80;88.30
11140;DHT22;5624;49.388;11.350;2023-12-29T14:58:54;8.70;88.40
11140;DHT22;5624;49.388;11.350;2023-12-29T15:01:19;8.70;88.50
11140;DHT22;5624;49.388;11.350;2023-12-29T15:03:45;8.60;89.00
11140;DHT22;5624;49.388;11.350;2023-12-29T15:06:10;8.60;88.80
11140;DHT22;5624;49.388;11.350;2023-12-29T15:08:36;8.60;89.20
11140;DHT22;5624;49.388;11.350;2023-12-29T15:11:06;8.60;89.10
11140;DHT22;5624;49.388;11.350;2023-12-29T15:13:33;8.60;89.60
11140;DHT22;5624;49.388;11.350;2023-12-29T15:15:59;8.60;89.30
11140;DHT22;5624;49.388;11.350;2023-12-29T15:18:26;8.60;88.70
11140;DHT22;5624;49.388;11.350;2023-12-29T15:20:51;8.60;89.20
11140;DHT22;5624;49.388;11.350;2023-12-29T15:23:17;8.50;87.20
11140;DHT22;5624;49.388;11.350;2023-12-29T15:25:43;8.50;86.20
11140;DHT22;5624;49.388;11.350;2023-12-29T15:28:08;8.40;87.00
11140;DHT22;5624;49.388;11.350;2023-12-29T15:30:34;8.30;87.20
11140;DHT22;5624;49.388;11.350;2023-12-29T15:32:59;8.30;87.50
11140;DHT22;5624;49.388;11.350;2023-12-29T15:35:25;8.20;88.00
11140;DHT22;5624;49.388;11.350;2023-12-29T15:37:50;8.20;88.70
11140;DHT22;5624;49.388;11.350;2023-12-29T15:40:16;8.10;89.00
11140;DHT22;5624;49.388;11.350;2023-12-29T15:42:41;8.00;89.30
11140;DHT22;5624;49.388;11.350;2023-12-29T15:45:07;8.00;89.80
11140;DHT22;5624;49.388;11.350;2023-12-29T15:47:33;8.00;90.00
11140;DHT22;5624;49.388;11.350;2023-12-29T15:49:59;7.90;90.30
11140;DHT22;5624;49.388;11.350;2023-12-29T15:52:24;7.80;90.90
11140;DHT22;5624;49.388;11.350;2023-12-29T15:54:52;7.70;92.10